sensor_id;sensor_type;location;lat;lon;timestamp;temperature;humidity
38973;DHT22;25333;50.762;4.470;2023-05-07T00:02:05;14.90;99.90
38973;DHT22;25333;50.762;4.470;2023-05-07T00:04:30;15.00;99.90
38973;DHT22;25333;50.762;4.470;2023-05-07T00:07:02;15.00;99.90
38973;DHT22;25333;50.762;4.470;2023-05-07T00:09:28;14.90;99.90
38973;DHT22;25333;50.762;4.470;2023-05-07T00:11:53;15.00;99.90
38973;DHT22;25333;50.762;4.470;2023-05-07T00:14:19;15.00;99.90
38973;DHT22;25333;50.762;4.470;2023-05-07T00:16:46;15.00;99.90
38973;DHT22;25333;50.762;4.470;2023-05-07T00:19:12;15.00;99.90
38973;DHT22;25333;50.762;4.470;2023-05-07T00:21:37;15.00;99.90
38973;DHT22;25333;50.762;4.470;2023-05-07T00:24:03;15.00;99.90
38973;DHT22;25333;50.762;4.470;2023-05-07T00:26:29;15.10;99.90
38973;DHT22;25333;50.762;4.470;2023-05-07T00:28:54;15.10;99.90
38973;DHT22;25333;50.762;4.470;2023-05-07T00:31:20;15.10;99.90
38973;DHT22;25333;50.762;4.470;2023-05-07T00:33:46;15.00;99.90
38973;DHT22;25333;50.762;4.470;2023-05-07T00:36:12;15.00;99.90
38973;DHT22;25333;50.762;4.470;2023-05-07T00:38:37;15.00;99.90
38973;DHT22;25333;50.762;4.470;2023-05-07T00:41:03;15.10;99.90
38973;DHT22;25333;50.762;4.470;2023-05-07T00:43:29;14.90;99.90
38973;DHT22;25333;50.762;4.470;2023-05-07T00:45:55;14.80;99.90
38973;DHT22;25333;50.762;4.470;2023-05-07T00:48:21;14.70;99.90
38973;DHT22;25333;50.762;4.470;2023-05-07T00:50:47;14.70;99.90
38973;DHT22;25333;50.762;4.470;2023-05-07T00:53:14;14.80;99.90
38973;DHT22;25333;50.762;4.470;2023-05-07T00:55:39;14.90;99.90
38973;DHT22;25333;50.762;4.470;2023-05-07T00:58:05;14.90;99.90
38973;DHT22;25333;50.762;4.470;2023-05-07T01:00:31;15.00;99.90
38973;DHT22;25333;50.762;4.470;2023-05-07T01:02:57;15.00;99.90
38973;DHT22;25333;50.762;4.470;2023-05-07T01:05:24;14.90;99.90
38973;DHT22;25333;50.762;4.470;2023-05-07T01:07:52;14.80;99.90
38973;DHT22;25333;50.762;4.470;2023-05-07T01:10:19;14.80;99.90
38973;DHT22;25333;50.762;4.470;2023-05-07T01:12:45;14.80;99.90
38973;DHT22;25333;50.762;4.470;2023-05-07T01:15:13;14.90;99.90
38973;DHT22;25333;50.762;4.470;2023-05-07T01:17:40;14.90;99.90
38973;DHT22;25333;50.762;4.470;2023-05-07T01:20:07;15.00;99.90
38973;DHT22;25333;50.762;4.470;2023-05-07T01:22:34;15.00;99.90
38973;DHT22;25333;50.762;4.470;2023-05-07T01:25:02;14.90;99.90
38973;DHT22;25333;50.762;4.470;2023-05-07T01:27:28;14.80;99.90
38973;DHT22;25333;50.762;4.470;2023-05-07T01:29:54;14.60;99.90
38973;DHT22;25333;50.762;4.470;2023-05-07T01:32:29;14.60;99.90
38973;DHT22;25333;50.762;4.470;2023-05-07T01:34:57;14.80;99.90
38973;DHT22;25333;50.762;4.470;2023-05-07T01:37:25;14.90;99.90
38973;DHT22;25333;50.762;4.470;2023-05-07T01:39:52;14.90;99.90
38973;DHT22;25333;50.762;4.470;2023-05-07T01:42:18;14.90;99.90
38973;DHT22;25333;50.762;4.470;2023-05-07T01:44:44;14.90;99.90
38973;DHT22;25333;50.762;4.470;2023-05-07T01:47:10;15.00;99.90
38973;DHT22;25333;50.762;4.470;2023-05-07T01:49:36;15.00;99.90
38973;DHT22;25333;50.762;4.470;2023-05-07T01:52:03;14.90;99.90
38973;DHT22;25333;50.762;4.470;2023-05-07T01:54:28;14.90;99.90
38973;DHT22;25333;50.762;4.470;2023-05-07T01:56:56;14.80;99.90
38973;DHT22;25333;50.762;4.470;2023-05-07T01:59:21;14.80;99.90
38973;DHT22;25333;50.762;4.470;2023-05-07T02:01:47;14.70;99.90
38973;DHT22;25333;50.762;4.470;2023-05-07T02:04:13;14.70;99.90
38973;DHT22;25333;50.762;4.470;2023-05-07T02:06:38;14.80;99.90
38973;DHT22;25333;50.762;4.470;2023-05-07T02:09:04;14.80;99.90
38973;DHT22;25333;50.762;4.470;2023-05-07T02:11:30;14.80;99.90
38973;DHT22;25333;50.762;4.470;2023-05-07T02:13:55;14.70;99.90
38973;DHT22;25333;50.762;4.470;2023-05-07T02:16:21;14.70;99.90
38973;DHT22;25333;50.762;4.470;2023-05-07T02:18:48;14.70;99.90
38973;DHT22;25333;50.762;4.470;2023-05-07T02:21:14;14.70;99.90
38973;DHT22;25333;50.762;4.470;2023-05-07T02:23:39;14.60;99.90
38973;DHT22;25333;50.762;4.470;2023-05-07T02:26:05;14.70;99.90
38973;DHT22;25333;50.762;4.470;2023-05-07T02:28:31;14.70;99.90
38973;DHT22;25333;50.762;4.470;2023-05-07T02:30:57;14.50;99.90
38973;DHT22;25333;50.762;4.470;2023-05-07T02:33:23;14.40;99.90
38973;DHT22;25333;50.762;4.470;2023-05-07T02:35:50;14.40;99.90
38973;DHT22;25333;50.762;4.470;2023-05-07T02:38:17;14.40;99.90
38973;DHT22;25333;50.762;4.470;2023-05-07T02:40:43;14.50;99.90
38973;DHT22;25333;50.762;4.470;2023-05-07T02:43:09;14.50;99.90
38973;DHT22;25333;50.762;4.470;2023-05-07T02:45:35;14.50;99.90
38973;DHT22;25333;50.762;4.470;2023-05-07T02:48:03;14.50;99.90
38973;DHT22;25333;50.762;4.470;2023-05-07T02:50:29;14.40;99.90
38973;DHT22;25333;50.762;4.470;2023-05-07T02:55:28;14.30;99.90
38973;DHT22;25333;50.762;4.470;2023-05-07T02:57:54;14.30;99.90
38973;DHT22;25333;50.762;4.470;2023-05-07T03:00:20;14.40;99.90
38973;DHT22;25333;50.762;4.470;2023-05-07T03:02:47;14.40;99.90
38973;DHT22;25333;50.762;4.470;2023-05-07T03:05:13;14.30;99.90
38973;DHT22;25333;50.762;4.470;2023-05-07T03:07:40;14.20;99.90
38973;DHT22;25333;50.762;4.470;2023-05-07T03:10:06;14.20;99.90
38973;DHT22;25333;50.762;4.470;2023-05-07T03:12:32;14.20;99.90
38973;DHT22;25333;50.762;4.470;2023-05-07T03:14:58;14.20;99.90
38973;DHT22;25333;50.762;4.470;2023-05-07T03:17:24;14.20;99.90
38973;DHT22;25333;50.762;4.470;2023-05-07T03:19:50;14.20;99.90
38973;DHT22;25333;50.762;4.470;2023-05-07T03:22:16;14.30;99.90
38973;DHT22;25333;50.762;4.470;2023-05-07T03:24:42;14.30;99.90
38973;DHT22;25333;50.762;4.470;2023-05-07T03:27:07;14.40;99.90
38973;DHT22;25333;50.762;4.470;2023-05-07T03:29:33;14.40;99.90
38973;DHT22;25333;50.762;4.470;2023-05-07T03:31:58;14.50;99.90
38973;DHT22;25333;50.762;4.470;2023-05-07T03:34:24;14.40;99.90
38973;DHT22;25333;50.762;4.470;2023-05-07T03:36:50;14.50;99.90
38973;DHT22;25333;50.762;4.470;2023-05-07T03:39:15;14.50;99.90
38973;DHT22;25333;50.762;4.470;2023-05-07T03:41:41;14.50;99.90
38973;DHT22;25333;50.762;4.470;2023-05-07T03:44:08;14.50;99.90
38973;DHT22;25333;50.762;4.470;2023-05-07T03:46:34;14.50;99.90
38973;DHT22;25333;50.762;4.470;2023-05-07T03:49:00;14.50;99.90
38973;DHT22;25333;50.762;4.470;2023-05-07T03:51:26;14.60;99.90
38973;DHT22;25333;50.762;4.470;2023-05-07T03:53:52;14.50;99.90
38973;DHT22;25333;50.762;4.470;2023-05-07T03:56:19;14.50;99.90
38973;DHT22;25333;50.762;4.470;2023-05-07T03:58:47;14.50;99.90
38973;DHT22;25333;50.762;4.470;2023-05-07T04:01:13;14.50;99.90
38973;DHT22;25333;50.762;4.470;2023-05-07T04:03:40;14.60;99.90
38973;DHT22;25333;50.762;4.470;2023-05-07T04:06:05;14.50;99.90
38973;DHT22;25333;50.762;4.470;2023-05-07T04:08:31;14.50;99.90
38973;DHT22;25333;50.762;4.470;2023-05-07T04:10:58;14.50;99.90
38973;DHT22;25333;50.762;4.470;2023-05-07T04:13:24;14.60;99.90
38973;DHT22;25333;50.762;4.470;2023-05-07T04:15:51;14.70;99.90
38973;DHT22;25333;50.762;4.470;2023-05-07T04:18:17;14.60;99.90
38973;DHT22;25333;50.762;4.470;2023-05-07T04:20:43;14.70;99.90
38973;DHT22;25333;50.762;4.470;2023-05-07T04:23:10;14.70;99.90
38973;DHT22;25333;50.762;4.470;2023-05-07T04:25:35;14.70;99.90
38973;DHT22;25333;50.762;4.470;2023-05-07T04:28:01;14.70;99.90
38973;DHT22;25333;50.762;4.470;2023-05-07T04:30:27;14.60;99.90
38973;DHT22;25333;50.762;4.470;2023-05-07T04:32:53;14.70;99.90
38973;DHT22;25333;50.762;4.470;2023-05-07T04:35:18;14.70;99.90
38973;DHT22;25333;50.762;4.470;2023-05-07T04:37:44;14.70;99.90
38973;DHT22;25333;50.762;4.470;2023-05-07T04:40:10;14.80;99.90
38973;DHT22;25333;50.762;4.470;2023-05-07T04:42:36;14.80;99.90
38973;DHT22;25333;50.762;4.470;2023-05-07T04:45:02;14.70;99.90
38973;DHT22;25333;50.762;4.470;2023-05-07T04:47:31;14.70;99.90
38973;DHT22;25333;50.762;4.470;2023-05-07T04:49:58;14.80;99.90
38973;DHT22;25333;50.762;4.470;2023-05-07T04:52:25;14.80;99.90
38973;DHT22;25333;50.762;4.470;2023-05-07T04:54:52;14.80;99.90
38973;DHT22;25333;50.762;4.470;2023-05-07T04:57:22;14.80;99.90
38973;DHT22;25333;50.762;4.470;2023-05-07T04:59:48;14.80;99.90
38973;DHT22;25333;50.762;4.470;2023-05-07T05:02:18;14.80;99.90
38973;DHT22;25333;50.762;4.470;2023-05-07T05:04:49;14.70;99.90
38973;DHT22;25333;50.762;4.470;2023-05-07T05:07:14;14.80;99.90
38973;DHT22;25333;50.762;4.470;2023-05-07T05:09:41;14.90;99.90
38973;DHT22;25333;50.762;4.470;2023-05-07T05:12:09;14.90;99.90
38973;DHT22;25333;50.762;4.470;2023-05-07T05:14:40;15.00;99.90
38973;DHT22;25333;50.762;4.470;2023-05-07T05:17:06;15.00;99.90
38973;DHT22;25333;50.762;4.470;2023-05-07T05:19:33;15.00;99.90
38973;DHT22;25333;50.762;4.470;2023-05-07T05:21:58;15.10;99.90
38973;DHT22;25333;50.762;4.470;2023-05-07T05:24:26;15.10;99.90
38973;DHT22;25333;50.762;4.470;2023-05-07T05:26:53;15.10;99.90
38973;DHT22;25333;50.762;4.470;2023-05-07T05:29:19;15.10;99.90
38973;DHT22;25333;50.762;4.470;2023-05-07T05:31:46;15.20;99.90
38973;DHT22;25333;50.762;4.470;2023-05-07T05:34:11;15.20;99.90
38973;DHT22;25333;50.762;4.470;2023-05-07T05:36:37;15.20;99.90
38973;DHT22;25333;50.762;4.470;2023-05-07T05:39:10;15.20;99.90
38973;DHT22;25333;50.762;4.470;2023-05-07T05:41:36;15.30;99.90
38973;DHT22;25333;50.762;4.470;2023-05-07T05:44:02;15.30;99.90
38973;DHT22;25333;50.762;4.470;2023-05-07T05:46:28;15.30;99.90
38973;DHT22;25333;50.762;4.470;2023-05-07T05:48:53;15.20;99.90
38973;DHT22;25333;50.762;4.470;2023-05-07T05:51:20;15.20;99.90
38973;DHT22;25333;50.762;4.470;2023-05-07T05:53:47;15.20;99.90
38973;DHT22;25333;50.762;4.470;2023-05-07T05:56:22;15.20;99.90
38973;DHT22;25333;50.762;4.470;2023-05-07T05:58:50;15.20;99.90
38973;DHT22;25333;50.762;4.470;2023-05-07T06:01:15;15.20;99.90
38973;DHT22;25333;50.762;4.470;2023-05-07T06:03:44;15.20;99.90
38973;DHT22;25333;50.762;4.470;2023-05-07T06:06:10;15.20;99.90
38973;DHT22;25333;50.762;4.470;2023-05-07T06:08:36;15.20;99.90
38973;DHT22;25333;50.762;4.470;2023-05-07T06:11:02;15.20;99.90
38973;DHT22;25333;50.762;4.470;2023-05-07T06:13:28;15.20;99.90
38973;DHT22;25333;50.762;4.470;2023-05-07T06:15:53;15.20;99.90
38973;DHT22;25333;50.762;4.470;2023-05-07T06:18:19;15.20;99.90
38973;DHT22;25333;50.762;4.470;2023-05-07T06:20:45;15.10;99.90
38973;DHT22;25333;50.762;4.470;2023-05-07T06:23:11;15.10;99.90
38973;DHT22;25333;50.762;4.470;2023-05-07T06:25:36;15.10;99.90
38973;DHT22;25333;50.762;4.470;2023-05-07T06:28:02;15.20;99.90
38973;DHT22;25333;50.762;4.470;2023-05-07T06:30:28;15.20;99.90
38973;DHT22;25333;50.762;4.470;2023-05-07T06:32:54;15.20;99.90
38973;DHT22;25333;50.762;4.470;2023-05-07T06:35:19;15.10;99.90
38973;DHT22;25333;50.762;4.470;2023-05-07T06:37:45;15.10;99.90
38973;DHT22;25333;50.762;4.470;2023-05-07T06:40:11;15.10;99.90
38973;DHT22;25333;50.762;4.470;2023-05-07T06:42:37;15.20;99.90
38973;DHT22;25333;50.762;4.470;2023-05-07T06:45:03;15.20;99.90
38973;DHT22;25333;50.762;4.470;2023-05-07T06:47:29;15.20;99.90
38973;DHT22;25333;50.762;4.470;2023-05-07T06:49:55;15.30;99.90
38973;DHT22;25333;50.762;4.470;2023-05-07T06:52:20;15.30;99.90
38973;DHT22;25333;50.762;4.470;2023-05-07T06:54:46;15.40;99.90
38973;DHT22;25333;50.762;4.470;2023-05-07T06:57:12;15.40;99.90
38973;DHT22;25333;50.762;4.470;2023-05-07T06:59:41;15.40;99.90
38973;DHT22;25333;50.762;4.470;2023-05-07T07:02:07;15.50;99.90
38973;DHT22;25333;50.762;4.470;2023-05-07T07:04:34;15.50;99.90
38973;DHT22;25333;50.762;4.470;2023-05-07T07:07:00;15.50;99.90
38973;DHT22;25333;50.762;4.470;2023-05-07T07:09:25;15.50;99.90
38973;DHT22;25333;50.762;4.470;2023-05-07T07:11:51;15.50;99.90
38973;DHT22;25333;50.762;4.470;2023-05-07T07:14:17;15.50;99.90
38973;DHT22;25333;50.762;4.470;2023-05-07T07:16:42;15.70;99.90
38973;DHT22;25333;50.762;4.470;2023-05-07T07:19:08;15.70;99.90
38973;DHT22;25333;50.762;4.470;2023-05-07T07:21:35;15.80;99.90
38973;DHT22;25333;50.762;4.470;2023-05-07T07:24:01;15.80;99.90
38973;DHT22;25333;50.762;4.470;2023-05-07T07:26:27;15.80;99.90
38973;DHT22;25333;50.762;4.470;2023-05-07T07:28:53;15.80;99.90
38973;DHT22;25333;50.762;4.470;2023-05-07T07:31:19;15.80;99.90
38973;DHT22;25333;50.762;4.470;2023-05-07T07:33:45;15.80;99.90
38973;DHT22;25333;50.762;4.470;2023-05-07T07:36:10;15.90;99.90
38973;DHT22;25333;50.762;4.470;2023-05-07T07:38:36;15.80;99.90
38973;DHT22;25333;50.762;4.470;2023-05-07T07:41:02;15.80;99.90
38973;DHT22;25333;50.762;4.470;2023-05-07T07:43:28;15.90;99.90
38973;DHT22;25333;50.762;4.470;2023-05-07T07:45:53;15.80;99.90
38973;DHT22;25333;50.762;4.470;2023-05-07T07:48:19;15.90;99.90
38973;DHT22;25333;50.762;4.470;2023-05-07T07:50:45;15.80;99.90
38973;DHT22;25333;50.762;4.470;2023-05-07T07:53:10;15.80;99.90
38973;DHT22;25333;50.762;4.470;2023-05-07T07:55:39;15.90;99.90
38973;DHT22;25333;50.762;4.470;2023-05-07T07:58:05;15.70;99.90
38973;DHT22;25333;50.762;4.470;2023-05-07T08:00:31;15.80;99.90
38973;DHT22;25333;50.762;4.470;2023-05-07T08:02:56;15.80;99.90
38973;DHT22;25333;50.762;4.470;2023-05-07T08:05:23;15.90;99.90
38973;DHT22;25333;50.762;4.470;2023-05-07T08:07:48;16.00;99.90
38973;DHT22;25333;50.762;4.470;2023-05-07T08:10:18;15.90;99.90
38973;DHT22;25333;50.762;4.470;2023-05-07T08:12:50;16.00;99.90
38973;DHT22;25333;50.762;4.470;2023-05-07T08:15:16;16.10;99.90
38973;DHT22;25333;50.762;4.470;2023-05-07T08:17:42;16.00;99.90
38973;DHT22;25333;50.762;4.470;2023-05-07T08:20:08;15.80;99.90
38973;DHT22;25333;50.762;4.470;2023-05-07T08:22:35;15.80;99.90
38973;DHT22;25333;50.762;4.470;2023-05-07T08:25:01;15.80;99.90
38973;DHT22;25333;50.762;4.470;2023-05-07T08:27:27;15.80;99.90
38973;DHT22;25333;50.762;4.470;2023-05-07T08:29:53;15.90;99.90
38973;DHT22;25333;50.762;4.470;2023-05-07T08:32:20;16.00;99.90
38973;DHT22;25333;50.762;4.470;2023-05-07T08:34:45;16.10;99.90
38973;DHT22;25333;50.762;4.470;2023-05-07T08:37:11;16.10;99.90
38973;DHT22;25333;50.762;4.470;2023-05-07T08:39:37;16.20;99.90
38973;DHT22;25333;50.762;4.470;2023-05-07T08:42:04;16.10;99.90
38973;DHT22;25333;50.762;4.470;2023-05-07T08:44:33;16.20;99.90
38973;DHT22;25333;50.762;4.470;2023-05-07T08:47:01;16.20;99.90
38973;DHT22;25333;50.762;4.470;2023-05-07T08:49:28;16.10;99.90
38973;DHT22;25333;50.762;4.470;2023-05-07T08:51:54;16.00;99.90
38973;DHT22;25333;50.762;4.470;2023-05-07T08:54:21;16.10;99.90
38973;DHT22;25333;50.762;4.470;2023-05-07T08:56:47;16.00;99.90
38973;DHT22;25333;50.762;4.470;2023-05-07T08:59:13;16.10;99.90
38973;DHT22;25333;50.762;4.470;2023-05-07T09:01:39;16.10;99.90
38973;DHT22;25333;50.762;4.470;2023-05-07T09:04:05;16.20;99.90
38973;DHT22;25333;50.762;4.470;2023-05-07T09:06:32;16.20;99.90
38973;DHT22;25333;50.762;4.470;2023-05-07T09:08:58;16.30;99.90
38973;DHT22;25333;50.762;4.470;2023-05-07T09:11:26;16.40;99.90
38973;DHT22;25333;50.762;4.470;2023-05-07T09:13:56;16.40;99.90
38973;DHT22;25333;50.762;4.470;2023-05-07T09:16:24;16.50;99.90
38973;DHT22;25333;50.762;4.470;2023-05-07T09:18:54;16.40;99.90
38973;DHT22;25333;50.762;4.470;2023-05-07T09:21:20;16.40;99.90
38973;DHT22;25333;50.762;4.470;2023-05-07T09:23:50;16.40;99.90
38973;DHT22;25333;50.762;4.470;2023-05-07T09:26:16;16.40;99.90
38973;DHT22;25333;50.762;4.470;2023-05-07T09:28:42;16.50;99.90
38973;DHT22;25333;50.762;4.470;2023-05-07T09:31:09;16.50;99.90
38973;DHT22;25333;50.762;4.470;2023-05-07T09:33:35;16.50;99.90
38973;DHT22;25333;50.762;4.470;2023-05-07T09:36:08;16.50;99.90
38973;DHT22;25333;50.762;4.470;2023-05-07T09:38:35;16.50;99.90
38973;DHT22;25333;50.762;4.470;2023-05-07T09:41:04;16.60;99.90
38973;DHT22;25333;50.762;4.470;2023-05-07T09:43:38;16.50;99.90
38973;DHT22;25333;50.762;4.470;2023-05-07T09:46:10;16.50;99.90
38973;DHT22;25333;50.762;4.470;2023-05-07T09:48:37;16.50;99.90
38973;DHT22;25333;50.762;4.470;2023-05-07T09:51:10;16.50;99.90
38973;DHT22;25333;50.762;4.470;2023-05-07T09:53:37;16.60;99.90
38973;DHT22;25333;50.762;4.470;2023-05-07T09:56:04;16.50;99.90
38973;DHT22;25333;50.762;4.470;2023-05-07T09:58:32;16.50;99.90
38973;DHT22;25333;50.762;4.470;2023-05-07T10:00:58;16.60;99.90
38973;DHT22;25333;50.762;4.470;2023-05-07T10:03:25;16.60;99.90
38973;DHT22;25333;50.762;4.470;2023-05-07T10:05:53;16.70;99.90
38973;DHT22;25333;50.762;4.470;2023-05-07T10:08:19;16.70;99.90
38973;DHT22;25333;50.762;4.470;2023-05-07T10:10:46;16.80;99.90
38973;DHT22;25333;50.762;4.470;2023-05-07T10:13:12;16.70;99.90
38973;DHT22;25333;50.762;4.470;2023-05-07T10:15:38;16.80;99.90
38973;DHT22;25333;50.762;4.470;2023-05-07T10:18:06;16.80;99.90
38973;DHT22;25333;50.762;4.470;2023-05-07T10:20:33;16.70;99.90
38973;DHT22;25333;50.762;4.470;2023-05-07T10:23:04;16.60;99.90
38973;DHT22;25333;50.762;4.470;2023-05-07T10:25:31;16.50;99.90
38973;DHT22;25333;50.762;4.470;2023-05-07T10:28:04;16.50;99.90
38973;DHT22;25333;50.762;4.470;2023-05-07T10:33:24;16.50;99.90
38973;DHT22;25333;50.762;4.470;2023-05-07T10:35:51;16.50;99.90
38973;DHT22;25333;50.762;4.470;2023-05-07T10:38:21;16.60;99.90
38973;DHT22;25333;50.762;4.470;2023-05-07T10:40:47;16.60;99.90
38973;DHT22;25333;50.762;4.470;2023-05-07T10:43:12;16.60;99.90
38973;DHT22;25333;50.762;4.470;2023-05-07T10:45:38;16.70;99.90
38973;DHT22;25333;50.762;4.470;2023-05-07T10:48:12;16.80;99.90
38973;DHT22;25333;50.762;4.470;2023-05-07T10:50:40;16.80;99.90
38973;DHT22;25333;50.762;4.470;2023-05-07T10:55:48;16.90;99.90
38973;DHT22;25333;50.762;4.470;2023-05-07T10:58:43;16.90;99.90
38973;DHT22;25333;50.762;4.470;2023-05-07T11:01:09;16.90;99.90
38973;DHT22;25333;50.762;4.470;2023-05-07T11:04:16;17.00;99.90
38973;DHT22;25333;50.762;4.470;2023-05-07T11:15:07;17.10;99.90
38973;DHT22;25333;50.762;4.470;2023-05-07T11:17:33;17.00;99.90
38973;DHT22;25333;50.762;4.470;2023-05-07T11:20:01;17.10;99.90
38973;DHT22;25333;50.762;4.470;2023-05-07T11:25:00;17.20;99.90
38973;DHT22;25333;50.762;4.470;2023-05-07T11:27:26;17.20;99.90
38973;DHT22;25333;50.762;4.470;2023-05-07T11:29:52;17.10;99.90
38973;DHT22;25333;50.762;4.470;2023-05-07T11:32:26;17.20;99.90
38973;DHT22;25333;50.762;4.470;2023-05-07T11:34:53;17.10;99.90
38973;DHT22;25333;50.762;4.470;2023-05-07T11:37:19;17.10;99.90
38973;DHT22;25333;50.762;4.470;2023-05-07T11:39:45;17.20;99.90
38973;DHT22;25333;50.762;4.470;2023-05-07T11:42:38;17.10;99.90
38973;DHT22;25333;50.762;4.470;2023-05-07T11:45:05;17.10;99.90
38973;DHT22;25333;50.762;4.470;2023-05-07T11:47:32;17.20;99.90
38973;DHT22;25333;50.762;4.470;2023-05-07T11:50:05;17.30;99.90
38973;DHT22;25333;50.762;4.470;2023-05-07T11:52:32;17.20;99.90
38973;DHT22;25333;50.762;4.470;2023-05-07T11:54:59;17.30;99.90
38973;DHT22;25333;50.762;4.470;2023-05-07T11:57:26;17.40;99.90
38973;DHT22;25333;50.762;4.470;2023-05-07T11:59:59;17.40;99.90
38973;DHT22;25333;50.762;4.470;2023-05-07T12:02:27;17.40;99.90
38973;DHT22;25333;50.762;4.470;2023-05-07T12:04:54;17.40;99.90
38973;DHT22;25333;50.762;4.470;2023-05-07T12:07:20;17.40;99.90
38973;DHT22;25333;50.762;4.470;2023-05-07T12:09:46;17.40;99.90
38973;DHT22;25333;50.762;4.470;2023-05-07T12:12:13;17.40;99.90
38973;DHT22;25333;50.762;4.470;2023-05-07T12:14:42;17.40;99.90
38973;DHT22;25333;50.762;4.470;2023-05-07T12:17:08;17.40;99.90
38973;DHT22;25333;50.762;4.470;2023-05-07T12:19:35;17.40;99.90
38973;DHT22;25333;50.762;4.470;2023-05-07T12:22:03;17.40;99.90
38973;DHT22;25333;50.762;4.470;2023-05-07T12:24:30;17.40;99.90
38973;DHT22;25333;50.762;4.470;2023-05-07T12:27:06;17.50;99.90
38973;DHT22;25333;50.762;4.470;2023-05-07T12:29:32;17.60;99.90
38973;DHT22;25333;50.762;4.470;2023-05-07T12:31:58;17.60;99.90
38973;DHT22;25333;50.762;4.470;2023-05-07T12:34:24;17.60;99.90
38973;DHT22;25333;50.762;4.470;2023-05-07T12:36:50;17.60;99.90
38973;DHT22;25333;50.762;4.470;2023-05-07T12:39:15;17.60;99.90
38973;DHT22;25333;50.762;4.470;2023-05-07T12:41:58;17.50;99.90
38973;DHT22;25333;50.762;4.470;2023-05-07T12:44:30;17.60;99.90
38973;DHT22;25333;50.762;4.470;2023-05-07T12:46:56;17.70;99.90
38973;DHT22;25333;50.762;4.470;2023-05-07T12:49:23;17.70;99.90
38973;DHT22;25333;50.762;4.470;2023-05-07T12:51:49;17.70;99.90
38973;DHT22;25333;50.762;4.470;2023-05-07T12:54:35;17.70;99.90
38973;DHT22;25333;50.762;4.470;2023-05-07T12:57:06;17.70;99.90
38973;DHT22;25333;50.762;4.470;2023-05-07T12:59:34;17.60;99.90
38973;DHT22;25333;50.762;4.470;2023-05-07T13:02:04;17.60;99.90
38973;DHT22;25333;50.762;4.470;2023-05-07T13:04:30;17.60;99.90
38973;DHT22;25333;50.762;4.470;2023-05-07T13:06:55;17.50;99.90
38973;DHT22;25333;50.762;4.470;2023-05-07T13:09:21;17.60;99.90
38973;DHT22;25333;50.762;4.470;2023-05-07T13:11:47;17.70;99.90
38973;DHT22;25333;50.762;4.470;2023-05-07T13:14:20;17.70;99.90
38973;DHT22;25333;50.762;4.470;2023-05-07T13:16:47;17.80;99.90
38973;DHT22;25333;50.762;4.470;2023-05-07T13:19:15;17.70;99.90
38973;DHT22;25333;50.762;4.470;2023-05-07T13:21:41;17.60;99.90
38973;DHT22;25333;50.762;4.470;2023-05-07T13:24:07;17.60;99.90
38973;DHT22;25333;50.762;4.470;2023-05-07T13:26:33;17.50;99.90
38973;DHT22;25333;50.762;4.470;2023-05-07T13:28:58;17.60;99.90
38973;DHT22;25333;50.762;4.470;2023-05-07T13:31:24;17.70;99.90
38973;DHT22;25333;50.762;4.470;2023-05-07T13:33:50;17.80;99.90
38973;DHT22;25333;50.762;4.470;2023-05-07T13:36:16;17.80;99.90
38973;DHT22;25333;50.762;4.470;2023-05-07T13:38:41;17.80;99.90
38973;DHT22;25333;50.762;4.470;2023-05-07T13:41:07;17.70;99.90
38973;DHT22;25333;50.762;4.470;2023-05-07T13:43:33;17.80;99.90
38973;DHT22;25333;50.762;4.470;2023-05-07T13:45:59;17.80;99.90
38973;DHT22;25333;50.762;4.470;2023-05-07T13:48:28;17.80;99.90
38973;DHT22;25333;50.762;4.470;2023-05-07T13:50:54;17.80;99.90
38973;DHT22;25333;50.762;4.470;2023-05-07T13:53:19;17.80;99.90
38973;DHT22;25333;50.762;4.470;2023-05-07T13:55:45;17.80;99.90
38973;DHT22;25333;50.762;4.470;2023-05-07T13:58:11;17.80;99.90
38973;DHT22;25333;50.762;4.470;2023-05-07T14:00:37;17.80;99.90
38973;DHT22;25333;50.762;4.470;2023-05-07T14:03:04;17.60;99.90
38973;DHT22;25333;50.762;4.470;2023-05-07T14:05:30;17.50;99.90
38973;DHT22;25333;50.762;4.470;2023-05-07T14:07:57;17.50;99.90
38973;DHT22;25333;50.762;4.470;2023-05-07T14:10:23;17.40;99.90
38973;DHT22;25333;50.762;4.470;2023-05-07T14:12:49;17.40;99.90
38973;DHT22;25333;50.762;4.470;2023-05-07T14:15:15;17.40;99.90
38973;DHT22;25333;50.762;4.470;2023-05-07T14:17:41;17.50;99.90
38973;DHT22;25333;50.762;4.470;2023-05-07T14:20:08;17.60;99.90
38973;DHT22;25333;50.762;4.470;2023-05-07T14:22:34;17.60;99.90
38973;DHT22;25333;50.762;4.470;2023-05-07T14:24:59;17.60;99.90
38973;DHT22;25333;50.762;4.470;2023-05-07T14:27:25;17.50;99.90
38973;DHT22;25333;50.762;4.470;2023-05-07T14:29:51;17.50;99.90
38973;DHT22;25333;50.762;4.470;2023-05-07T14:32:20;17.40;99.90
38973;DHT22;25333;50.762;4.470;2023-05-07T14:34:46;17.50;99.90
38973;DHT22;25333;50.762;4.470;2023-05-07T14:37:12;17.60;99.90
38973;DHT22;25333;50.762;4.470;2023-05-07T14:39:39;17.60;99.90
38973;DHT22;25333;50.762;4.470;2023-05-07T14:42:04;17.60;99.90
38973;DHT22;25333;50.762;4.470;2023-05-07T14:44:30;17.60;99.90
38973;DHT22;25333;50.762;4.470;2023-05-07T14:46:56;17.60;99.90
38973;DHT22;25333;50.762;4.470;2023-05-07T14:49:22;17.60;99.90
38973;DHT22;25333;50.762;4.470;2023-05-07T14:51:48;17.60;99.90
38973;DHT22;25333;50.762;4.470;2023-05-07T14:54:14;17.60;99.90
38973;DHT22;25333;50.762;4.470;2023-05-07T14:56:41;17.50;99.90
38973;DHT22;25333;50.762;4.470;2023-05-07T14:59:07;17.50;99.90
38973;DHT22;25333;50.762;4.470;2023-05-07T15:01:34;17.40;99.90
38973;DHT22;25333;50.762;4.470;2023-05-07T15:04:00;17.40;99.90
38973;DHT22;25333;50.762;4.470;2023-05-07T15:06:26;17.50;99.90
38973;DHT22;25333;50.762;4.470;2023-05-07T15:08:52;17.50;99.90
38973;DHT22;25333;50.762;4.470;2023-05-07T15:11:18;17.50;99.90
38973;DHT22;25333;50.762;4.470;2023-05-07T15:13:43;17.50;99.90
38973;DHT22;25333;50.762;4.470;2023-05-07T15:16:09;17.50;99.90
38973;DHT22;25333;50.762;4.470;2023-05-07T15:18:35;17.60;99.90
38973;DHT22;25333;50.762;4.470;2023-05-07T15:21:00;17.50;99.90
38973;DHT22;25333;50.762;4.470;2023-05-07T15:23:26;17.60;99.90
38973;DHT22;25333;50.762;4.470;2023-05-07T15:25:52;17.60;99.90
38973;DHT22;25333;50.762;4.470;2023-05-07T15:28:18;17.60;99.90
38973;DHT22;25333;50.762;4.470;2023-05-07T15:30:44;17.60;99.90
38973;DHT22;25333;50.762;4.470;2023-05-07T15:33:10;17.50;99.90
38973;DHT22;25333;50.762;4.470;2023-05-07T15:35:36;17.40;99.90
38973;DHT22;25333;50.762;4.470;2023-05-07T15:38:02;17.40;99.90
38973;DHT22;25333;50.762;4.470;2023-05-07T15:40:28;17.40;99.90
38973;DHT22;25333;50.762;4.470;2023-05-07T15:42:55;17.50;99.90
38973;DHT22;25333;50.762;4.470;2023-05-07T15:45:21;17.40;99.90
38973;DHT22;25333;50.762;4.470;2023-05-07T15:47:47;17.50;99.90